Disclaimer

Please do not use the information listed here in-flight or in-navigation, as they are not provided to us by the airports but are provided by volunteers, so they might be outdated.

Search


Regions


Airport information page

Radio informations:
ISTRES TWR - 122.1 MHz
RIVERIA OPS - 257.25 MHz
ISTRES GND - 121.85 MHz
ISTRES APP - 120.35 MHz
RHONE ACC - 119.475 MHz

Airport informations:
Latitude: 43° 31' 21.85" N
Longitude: 004° 55' 25.84" E
Elevation: 82 feet - 25 meters
Operating hours: Remarks
Operating agency: Military
Timezone: UTC+1(+2DT) - Last Sunday in March to last Sunday in October
Fuel: Jet A1+, Jet A1 with icing inhibitor.

Runway information:
15/33 - 12303 x 197 feet< - >3750 x 60 meters

Recent METARs:
LFMI 151630Z AUTO 32006KT CAVOK 05/M01 Q1019 NOSIG
LFMI 151700Z AUTO 33005KT CAVOK 05/M01 Q1019 NOSIG
LFMI 151730Z AUTO 35006KT 330V050 CAVOK 05/M01 Q1019 TEMPO RA

Airport on the map: